sensor_id;sensor_type;location;lat;lon;timestamp;P1;durP1;ratioP1;P2;durP2;ratioP2
9108;SDS011;4590;51.462;6.692;2023-02-02T00:00:47;7.77;;;2.17;;
9108;SDS011;4590;51.462;6.692;2023-02-02T00:03:13;10.30;;;2.03;;
9108;SDS011;4590;51.462;6.692;2023-02-02T00:05:43;6.20;;;1.73;;
9108;SDS011;4590;51.462;6.692;2023-02-02T00:08:13;8.10;;;1.95;;
9108;SDS011;4590;51.462;6.692;2023-02-02T00:10:43;11.32;;;2.20;;
9108;SDS011;4590;51.462;6.692;2023-02-02T00:13:08;5.88;;;1.85;;
9108;SDS011;4590;51.462;6.692;2023-02-02T00:15:34;10.82;;;1.90;;
9108;SDS011;4590;51.462;6.692;2023-02-02T00:17:59;11.33;;;3.07;;
9108;SDS011;4590;51.462;6.692;2023-02-02T00:20:25;11.07;;;2.30;;
9108;SDS011;4590;51.462;6.692;2023-02-02T00:22:50;12.17;;;2.50;;
9108;SDS011;4590;51.462;6.692;2023-02-02T00:25:15;9.43;;;2.10;;
9108;SDS011;4590;51.462;6.692;2023-02-02T00:27:41;11.83;;;1.90;;
9108;SDS011;4590;51.462;6.692;2023-02-02T00:30:06;11.70;;;2.60;;
9108;SDS011;4590;51.462;6.692;2023-02-02T00:32:32;8.63;;;2.42;;
9108;SDS011;4590;51.462;6.692;2023-02-02T00:34:57;10.17;;;2.23;;
9108;SDS011;4590;51.462;6.692;2023-02-02T00:37:23;12.07;;;2.63;;
9108;SDS011;4590;51.462;6.692;2023-02-02T00:39:48;9.63;;;2.30;;
9108;SDS011;4590;51.462;6.692;2023-02-02T00:42:13;12.83;;;2.40;;
9108;SDS011;4590;51.462;6.692;2023-02-02T00:44:38;12.03;;;2.30;;
9108;SDS011;4590;51.462;6.692;2023-02-02T00:47:23;11.32;;;2.28;;
9108;SDS011;4590;51.462;6.692;2023-02-02T00:49:48;8.23;;;2.17;;
9108;SDS011;4590;51.462;6.692;2023-02-02T00:52:13;10.33;;;2.23;;
9108;SDS011;4590;51.462;6.692;2023-02-02T00:54:39;11.10;;;2.27;;
9108;SDS011;4590;51.462;6.692;2023-02-02T00:57:04;8.30;;;1.97;;
9108;SDS011;4590;51.462;6.692;2023-02-02T00:59:29;14.47;;;2.43;;
9108;SDS011;4590;51.462;6.692;2023-02-02T01:01:55;7.77;;;2.37;;
9108;SDS011;4590;51.462;6.692;2023-02-02T01:04:20;13.33;;;3.23;;
9108;SDS011;4590;51.462;6.692;2023-02-02T01:06:45;10.53;;;2.17;;
9108;SDS011;4590;51.462;6.692;2023-02-02T01:09:10;9.70;;;2.60;;
9108;SDS011;4590;51.462;6.692;2023-02-02T01:11:36;9.40;;;2.63;;
9108;SDS011;4590;51.462;6.692;2023-02-02T01:14:01;11.50;;;3.07;;
9108;SDS011;4590;51.462;6.692;2023-02-02T01:16:26;10.13;;;2.80;;
9108;SDS011;4590;51.462;6.692;2023-02-02T01:18:52;9.10;;;2.50;;
9108;SDS011;4590;51.462;6.692;2023-02-02T01:21:17;12.13;;;2.90;;
9108;SDS011;4590;51.462;6.692;2023-02-02T01:23:43;15.00;;;4.10;;
9108;SDS011;4590;51.462;6.692;2023-02-02T01:26:09;12.10;;;3.40;;
9108;SDS011;4590;51.462;6.692;2023-02-02T01:28:35;11.27;;;2.80;;
9108;SDS011;4590;51.462;6.692;2023-02-02T01:33:35;8.02;;;2.45;;
9108;SDS011;4590;51.462;6.692;2023-02-02T01:36:02;10.00;;;3.20;;
9108;SDS011;4590;51.462;6.692;2023-02-02T01:38:30;7.45;;;2.65;;
9108;SDS011;4590;51.462;6.692;2023-02-02T01:40:55;7.90;;;3.03;;
9108;SDS011;4590;51.462;6.692;2023-02-02T01:43:22;11.32;;;3.20;;
9108;SDS011;4590;51.462;6.692;2023-02-02T01:45:48;12.13;;;3.33;;
9108;SDS011;4590;51.462;6.692;2023-02-02T01:48:14;10.38;;;2.58;;
9108;SDS011;4590;51.462;6.692;2023-02-02T01:53:07;11.63;;;2.60;;
9108;SDS011;4590;51.462;6.692;2023-02-02T01:55:33;17.30;;;3.40;;
9108;SDS011;4590;51.462;6.692;2023-02-02T01:58:03;13.48;;;3.25;;
9108;SDS011;4590;51.462;6.692;2023-02-02T02:00:35;10.85;;;2.83;;
9108;SDS011;4590;51.462;6.692;2023-02-02T02:03:08;10.55;;;2.80;;
9108;SDS011;4590;51.462;6.692;2023-02-02T02:05:41;6.90;;;2.40;;
9108;SDS011;4590;51.462;6.692;2023-02-02T02:08:14;11.02;;;2.75;;
9108;SDS011;4590;51.462;6.692;2023-02-02T02:10:42;10.32;;;2.58;;
9108;SDS011;4590;51.462;6.692;2023-02-02T02:13:08;13.73;;;3.10;;
9108;SDS011;4590;51.462;6.692;2023-02-02T02:15:36;9.73;;;2.80;;
9108;SDS011;4590;51.462;6.692;2023-02-02T02:21:14;10.57;;;2.63;;
9108;SDS011;4590;51.462;6.692;2023-02-02T02:27:45;14.38;;;3.17;;
9108;SDS011;4590;51.462;6.692;2023-02-02T02:33:26;13.40;;;3.78;;
9108;SDS011;4590;51.462;6.692;2023-02-02T02:36:02;10.23;;;3.08;;
9108;SDS011;4590;51.462;6.692;2023-02-02T02:38:36;6.63;;;2.15;;
9108;SDS011;4590;51.462;6.692;2023-02-02T02:41:09;9.75;;;2.92;;
9108;SDS011;4590;51.462;6.692;2023-02-02T02:43:41;11.00;;;3.03;;
9108;SDS011;4590;51.462;6.692;2023-02-02T02:46:12;11.63;;;3.97;;
9108;SDS011;4590;51.462;6.692;2023-02-02T02:48:37;12.37;;;3.40;;
9108;SDS011;4590;51.462;6.692;2023-02-02T02:54:03;13.52;;;3.67;;
9108;SDS011;4590;51.462;6.692;2023-02-02T02:56:32;11.00;;;2.60;;
9108;SDS011;4590;51.462;6.692;2023-02-02T02:59:07;9.43;;;3.20;;
9108;SDS011;4590;51.462;6.692;2023-02-02T03:01:44;14.17;;;3.93;;
9108;SDS011;4590;51.462;6.692;2023-02-02T03:07:42;10.52;;;3.58;;
9108;SDS011;4590;51.462;6.692;2023-02-02T03:10:05;12.75;;;3.70;;
9108;SDS011;4590;51.462;6.692;2023-02-02T03:12:33;12.82;;;3.38;;
9108;SDS011;4590;51.462;6.692;2023-02-02T03:15:07;7.80;;;2.88;;
9108;SDS011;4590;51.462;6.692;2023-02-02T03:17:32;10.80;;;3.37;;
9108;SDS011;4590;51.462;6.692;2023-02-02T03:19:57;11.40;;;3.20;;
9108;SDS011;4590;51.462;6.692;2023-02-02T03:22:23;8.80;;;3.00;;
9108;SDS011;4590;51.462;6.692;2023-02-02T03:24:48;11.90;;;3.80;;
9108;SDS011;4590;51.462;6.692;2023-02-02T03:27:13;14.23;;;4.13;;
9108;SDS011;4590;51.462;6.692;2023-02-02T03:29:38;10.23;;;3.00;;
9108;SDS011;4590;51.462;6.692;2023-02-02T03:32:04;10.50;;;3.00;;
9108;SDS011;4590;51.462;6.692;2023-02-02T03:34:29;12.20;;;3.00;;
9108;SDS011;4590;51.462;6.692;2023-02-02T03:36:55;11.93;;;3.35;;
9108;SDS011;4590;51.462;6.692;2023-02-02T03:39:20;11.40;;;3.57;;
9108;SDS011;4590;51.462;6.692;2023-02-02T03:41:46;12.63;;;3.90;;
9108;SDS011;4590;51.462;6.692;2023-02-02T03:44:11;12.90;;;4.10;;
9108;SDS011;4590;51.462;6.692;2023-02-02T03:46:36;13.73;;;3.90;;
9108;SDS011;4590;51.462;6.692;2023-02-02T03:49:01;10.87;;;3.53;;
9108;SDS011;4590;51.462;6.692;2023-02-02T03:51:27;11.27;;;3.30;;
9108;SDS011;4590;51.462;6.692;2023-02-02T03:53:52;14.87;;;3.60;;
9108;SDS011;4590;51.462;6.692;2023-02-02T03:56:17;10.13;;;3.30;;
9108;SDS011;4590;51.462;6.692;2023-02-02T03:58:43;8.05;;;2.83;;
9108;SDS011;4590;51.462;6.692;2023-02-02T04:01:10;13.13;;;3.13;;
9108;SDS011;4590;51.462;6.692;2023-02-02T04:06:02;11.18;;;3.25;;
9108;SDS011;4590;51.462;6.692;2023-02-02T04:08:27;11.60;;;3.63;;
9108;SDS011;4590;51.462;6.692;2023-02-02T04:10:52;10.57;;;3.07;;
9108;SDS011;4590;51.462;6.692;2023-02-02T04:13:18;12.53;;;4.70;;
9108;SDS011;4590;51.462;6.692;2023-02-02T04:15:43;19.30;;;4.27;;
9108;SDS011;4590;51.462;6.692;2023-02-02T04:18:09;10.67;;;3.70;;
9108;SDS011;4590;51.462;6.692;2023-02-02T04:20:34;13.87;;;3.80;;
9108;SDS011;4590;51.462;6.692;2023-02-02T04:22:59;18.53;;;3.93;;
9108;SDS011;4590;51.462;6.692;2023-02-02T04:25:25;13.90;;;3.63;;
9108;SDS011;4590;51.462;6.692;2023-02-02T04:27:50;15.00;;;4.37;;
9108;SDS011;4590;51.462;6.692;2023-02-02T04:30:15;13.40;;;3.70;;
9108;SDS011;4590;51.462;6.692;2023-02-02T04:32:41;15.77;;;4.18;;
9108;SDS011;4590;51.462;6.692;2023-02-02T04:35:06;12.17;;;3.90;;
9108;SDS011;4590;51.462;6.692;2023-02-02T04:37:32;12.77;;;3.50;;
9108;SDS011;4590;51.462;6.692;2023-02-02T04:39:57;11.17;;;3.50;;
9108;SDS011;4590;51.462;6.692;2023-02-02T04:42:23;14.17;;;3.63;;
9108;SDS011;4590;51.462;6.692;2023-02-02T04:44:48;12.60;;;3.10;;
9108;SDS011;4590;51.462;6.692;2023-02-02T04:47:13;12.90;;;3.73;;
9108;SDS011;4590;51.462;6.692;2023-02-02T04:49:38;12.50;;;2.97;;
9108;SDS011;4590;51.462;6.692;2023-02-02T04:52:04;10.23;;;2.77;;
9108;SDS011;4590;51.462;6.692;2023-02-02T04:54:29;11.63;;;3.08;;
9108;SDS011;4590;51.462;6.692;2023-02-02T04:56:55;11.60;;;2.73;;
9108;SDS011;4590;51.462;6.692;2023-02-02T04:59:20;12.73;;;3.03;;
9108;SDS011;4590;51.462;6.692;2023-02-02T05:01:45;15.93;;;3.63;;
9108;SDS011;4590;51.462;6.692;2023-02-02T05:04:11;12.60;;;2.97;;
9108;SDS011;4590;51.462;6.692;2023-02-02T05:06:36;9.60;;;2.50;;
9108;SDS011;4590;51.462;6.692;2023-02-02T05:09:01;12.83;;;3.33;;
9108;SDS011;4590;51.462;6.692;2023-02-02T05:11:27;11.87;;;3.33;;
9108;SDS011;4590;51.462;6.692;2023-02-02T05:13:52;10.93;;;3.00;;
9108;SDS011;4590;51.462;6.692;2023-02-02T05:16:19;14.45;;;3.55;;
9108;SDS011;4590;51.462;6.692;2023-02-02T05:18:52;17.05;;;3.70;;
9108;SDS011;4590;51.462;6.692;2023-02-02T05:21:20;14.07;;;3.35;;
9108;SDS011;4590;51.462;6.692;2023-02-02T05:23:46;15.00;;;3.22;;
9108;SDS011;4590;51.462;6.692;2023-02-02T05:26:13;8.97;;;3.20;;
9108;SDS011;4590;51.462;6.692;2023-02-02T05:28:41;9.50;;;2.55;;
9108;SDS011;4590;51.462;6.692;2023-02-02T05:31:07;11.53;;;3.63;;
9108;SDS011;4590;51.462;6.692;2023-02-02T05:33:32;12.13;;;3.47;;
9108;SDS011;4590;51.462;6.692;2023-02-02T05:35:58;9.63;;;3.27;;
9108;SDS011;4590;51.462;6.692;2023-02-02T05:38:23;9.07;;;3.10;;
9108;SDS011;4590;51.462;6.692;2023-02-02T05:40:48;11.73;;;3.40;;
9108;SDS011;4590;51.462;6.692;2023-02-02T05:43:14;13.20;;;3.23;;
9108;SDS011;4590;51.462;6.692;2023-02-02T05:45:39;10.17;;;3.40;;
9108;SDS011;4590;51.462;6.692;2023-02-02T05:48:04;13.17;;;3.40;;
9108;SDS011;4590;51.462;6.692;2023-02-02T05:50:30;12.97;;;2.90;;
9108;SDS011;4590;51.462;6.692;2023-02-02T05:52:55;12.63;;;3.43;;
9108;SDS011;4590;51.462;6.692;2023-02-02T05:55:21;12.55;;;3.25;;
9108;SDS011;4590;51.462;6.692;2023-02-02T05:57:46;10.20;;;2.93;;
9108;SDS011;4590;51.462;6.692;2023-02-02T06:00:12;16.57;;;2.50;;
9108;SDS011;4590;51.462;6.692;2023-02-02T06:02:38;13.32;;;3.00;;
9108;SDS011;4590;51.462;6.692;2023-02-02T06:05:03;9.50;;;2.87;;
9108;SDS011;4590;51.462;6.692;2023-02-02T06:07:29;10.05;;;3.03;;
9108;SDS011;4590;51.462;6.692;2023-02-02T06:09:54;8.57;;;2.93;;
9108;SDS011;4590;51.462;6.692;2023-02-02T06:12:19;12.67;;;2.90;;
9108;SDS011;4590;51.462;6.692;2023-02-02T06:14:45;11.53;;;2.97;;
9108;SDS011;4590;51.462;6.692;2023-02-02T06:17:10;9.97;;;2.70;;
9108;SDS011;4590;51.462;6.692;2023-02-02T06:19:35;10.77;;;3.00;;
9108;SDS011;4590;51.462;6.692;2023-02-02T06:22:00;11.83;;;3.20;;
9108;SDS011;4590;51.462;6.692;2023-02-02T06:24:26;12.63;;;3.10;;
9108;SDS011;4590;51.462;6.692;2023-02-02T06:26:51;12.90;;;3.43;;
9108;SDS011;4590;51.462;6.692;2023-02-02T06:29:17;9.33;;;3.07;;
9108;SDS011;4590;51.462;6.692;2023-02-02T06:31:42;10.80;;;3.47;;
9108;SDS011;4590;51.462;6.692;2023-02-02T06:34:08;14.33;;;3.00;;
9108;SDS011;4590;51.462;6.692;2023-02-02T06:36:35;7.03;;;2.70;;
9108;SDS011;4590;51.462;6.692;2023-02-02T06:39:00;14.10;;;3.43;;
9108;SDS011;4590;51.462;6.692;2023-02-02T06:41:28;12.48;;;3.60;;
9108;SDS011;4590;51.462;6.692;2023-02-02T06:43:54;22.50;;;4.13;;
9108;SDS011;4590;51.462;6.692;2023-02-02T06:46:19;11.13;;;3.37;;
9108;SDS011;4590;51.462;6.692;2023-02-02T06:48:44;10.23;;;3.23;;
9108;SDS011;4590;51.462;6.692;2023-02-02T06:51:10;15.07;;;3.50;;
9108;SDS011;4590;51.462;6.692;2023-02-02T06:53:35;11.40;;;4.07;;
9108;SDS011;4590;51.462;6.692;2023-02-02T06:56:01;11.13;;;3.30;;
9108;SDS011;4590;51.462;6.692;2023-02-02T06:58:29;9.98;;;3.70;;
9108;SDS011;4590;51.462;6.692;2023-02-02T07:00:59;14.38;;;4.00;;
9108;SDS011;4590;51.462;6.692;2023-02-02T07:03:28;10.07;;;3.45;;
9108;SDS011;4590;51.462;6.692;2023-02-02T07:05:53;13.17;;;4.37;;
9108;SDS011;4590;51.462;6.692;2023-02-02T07:08:18;11.63;;;3.57;;
9108;SDS011;4590;51.462;6.692;2023-02-02T07:10:44;11.57;;;4.30;;
9108;SDS011;4590;51.462;6.692;2023-02-02T07:13:09;14.37;;;4.10;;
9108;SDS011;4590;51.462;6.692;2023-02-02T07:15:36;12.77;;;3.57;;
9108;SDS011;4590;51.462;6.692;2023-02-02T07:18:03;14.10;;;4.13;;
9108;SDS011;4590;51.462;6.692;2023-02-02T07:20:28;17.30;;;5.10;;
9108;SDS011;4590;51.462;6.692;2023-02-02T07:22:54;12.57;;;3.33;;
9108;SDS011;4590;51.462;6.692;2023-02-02T07:25:19;14.03;;;3.73;;
9108;SDS011;4590;51.462;6.692;2023-02-02T07:27:44;10.27;;;3.73;;
9108;SDS011;4590;51.462;6.692;2023-02-02T07:30:11;12.32;;;4.32;;
9108;SDS011;4590;51.462;6.692;2023-02-02T07:32:37;10.77;;;3.93;;
9108;SDS011;4590;51.462;6.692;2023-02-02T07:35:02;10.07;;;4.00;;
9108;SDS011;4590;51.462;6.692;2023-02-02T07:37:28;8.10;;;3.43;;
9108;SDS011;4590;51.462;6.692;2023-02-02T07:39:53;7.13;;;3.60;;
9108;SDS011;4590;51.462;6.692;2023-02-02T07:42:18;12.20;;;4.00;;
9108;SDS011;4590;51.462;6.692;2023-02-02T07:44:44;11.73;;;4.07;;
9108;SDS011;4590;51.462;6.692;2023-02-02T07:47:09;14.80;;;4.07;;
9108;SDS011;4590;51.462;6.692;2023-02-02T07:49:34;11.53;;;4.13;;
9108;SDS011;4590;51.462;6.692;2023-02-02T07:51:59;12.93;;;3.93;;
9108;SDS011;4590;51.462;6.692;2023-02-02T07:54:25;8.90;;;3.37;;
9108;SDS011;4590;51.462;6.692;2023-02-02T07:56:50;10.57;;;3.37;;
9108;SDS011;4590;51.462;6.692;2023-02-02T07:59:15;14.10;;;4.30;;
9108;SDS011;4590;51.462;6.692;2023-02-02T08:01:40;12.23;;;3.70;;
9108;SDS011;4590;51.462;6.692;2023-02-02T08:04:06;10.73;;;4.10;;
9108;SDS011;4590;51.462;6.692;2023-02-02T08:06:35;11.57;;;3.80;;
9108;SDS011;4590;51.462;6.692;2023-02-02T08:09:02;11.35;;;3.28;;
9108;SDS011;4590;51.462;6.692;2023-02-02T08:11:29;7.97;;;3.17;;
9108;SDS011;4590;51.462;6.692;2023-02-02T08:13:55;8.07;;;3.08;;
9108;SDS011;4590;51.462;6.692;2023-02-02T08:16:22;11.93;;;3.42;;
9108;SDS011;4590;51.462;6.692;2023-02-02T08:18:49;14.15;;;3.90;;
9108;SDS011;4590;51.462;6.692;2023-02-02T08:21:15;12.20;;;3.92;;
9108;SDS011;4590;51.462;6.692;2023-02-02T08:23:42;10.75;;;3.95;;
9108;SDS011;4590;51.462;6.692;2023-02-02T08:26:29;10.43;;;3.45;;
9108;SDS011;4590;51.462;6.692;2023-02-02T08:28:55;8.05;;;2.90;;
9108;SDS011;4590;51.462;6.692;2023-02-02T08:31:38;11.57;;;3.40;;
9108;SDS011;4590;51.462;6.692;2023-02-02T08:34:06;8.57;;;3.60;;
9108;SDS011;4590;51.462;6.692;2023-02-02T08:36:32;10.57;;;3.50;;
9108;SDS011;4590;51.462;6.692;2023-02-02T08:39:03;12.88;;;4.45;;
9108;SDS011;4590;51.462;6.692;2023-02-02T08:41:34;10.80;;;2.40;;
9108;SDS011;4590;51.462;6.692;2023-02-02T08:44:03;10.95;;;3.95;;
9108;SDS011;4590;51.462;6.692;2023-02-02T08:46:29;11.27;;;3.63;;
9108;SDS011;4590;51.462;6.692;2023-02-02T08:48:54;10.90;;;3.87;;
9108;SDS011;4590;51.462;6.692;2023-02-02T08:51:20;12.17;;;3.50;;
9108;SDS011;4590;51.462;6.692;2023-02-02T08:53:45;13.53;;;3.97;;
9108;SDS011;4590;51.462;6.692;2023-02-02T08:56:12;13.30;;;4.53;;
9108;SDS011;4590;51.462;6.692;2023-02-02T08:58:38;10.00;;;3.63;;
9108;SDS011;4590;51.462;6.692;2023-02-02T09:01:10;12.57;;;3.72;;
9108;SDS011;4590;51.462;6.692;2023-02-02T09:03:38;9.98;;;3.45;;
9108;SDS011;4590;51.462;6.692;2023-02-02T09:06:07;10.75;;;3.92;;
9108;SDS011;4590;51.462;6.692;2023-02-02T09:08:35;12.88;;;4.07;;
9108;SDS011;4590;51.462;6.692;2023-02-02T09:11:07;13.47;;;3.77;;
9108;SDS011;4590;51.462;6.692;2023-02-02T09:13:36;7.18;;;3.40;;
9108;SDS011;4590;51.462;6.692;2023-02-02T09:16:03;10.38;;;3.28;;
9108;SDS011;4590;51.462;6.692;2023-02-02T09:18:30;9.88;;;3.72;;
9108;SDS011;4590;51.462;6.692;2023-02-02T09:21:00;11.77;;;3.58;;
9108;SDS011;4590;51.462;6.692;2023-02-02T09:23:33;10.10;;;4.75;;
9108;SDS011;4590;51.462;6.692;2023-02-02T09:28:52;7.10;;;2.85;;
9108;SDS011;4590;51.462;6.692;2023-02-02T09:31:19;11.07;;;3.60;;
9108;SDS011;4590;51.462;6.692;2023-02-02T09:33:45;13.18;;;3.60;;
9108;SDS011;4590;51.462;6.692;2023-02-02T09:36:12;10.80;;;4.13;;
9108;SDS011;4590;51.462;6.692;2023-02-02T09:38:40;13.88;;;3.90;;
9108;SDS011;4590;51.462;6.692;2023-02-02T09:43:57;11.73;;;3.80;;
9108;SDS011;4590;51.462;6.692;2023-02-02T09:47:07;13.38;;;4.60;;
9108;SDS011;4590;51.462;6.692;2023-02-02T09:49:36;8.65;;;3.58;;
9108;SDS011;4590;51.462;6.692;2023-02-02T09:52:25;10.20;;;3.88;;
9108;SDS011;4590;51.462;6.692;2023-02-02T09:55:16;10.27;;;4.18;;
9108;SDS011;4590;51.462;6.692;2023-02-02T09:57:52;11.98;;;3.80;;
9108;SDS011;4590;51.462;6.692;2023-02-02T10:00:26;14.02;;;4.20;;
9108;SDS011;4590;51.462;6.692;2023-02-02T10:03:01;11.63;;;3.60;;
9108;SDS011;4590;51.462;6.692;2023-02-02T10:05:39;9.63;;;3.70;;
9108;SDS011;4590;51.462;6.692;2023-02-02T10:08:12;13.00;;;4.00;;
9108;SDS011;4590;51.462;6.692;2023-02-02T10:10:44;11.43;;;3.80;;
9108;SDS011;4590;51.462;6.692;2023-02-02T10:13:13;10.77;;;4.18;;
9108;SDS011;4590;51.462;6.692;2023-02-02T10:15:49;11.40;;;4.00;;
9108;SDS011;4590;51.462;6.692;2023-02-02T10:18:41;9.50;;;4.50;;
9108;SDS011;4590;51.462;6.692;2023-02-02T10:21:19;12.45;;;4.90;;
9108;SDS011;4590;51.462;6.692;2023-02-02T10:23:51;14.13;;;4.22;;
9108;SDS011;4590;51.462;6.692;2023-02-02T10:26:22;12.60;;;4.20;;
9108;SDS011;4590;51.462;6.692;2023-02-02T10:28:53;11.10;;;4.22;;
9108;SDS011;4590;51.462;6.692;2023-02-02T10:33:54;14.00;;;4.82;;
9108;SDS011;4590;51.462;6.692;2023-02-02T10:42:18;8.55;;;3.58;;
9108;SDS011;4590;51.462;6.692;2023-02-02T10:45:01;12.80;;;4.55;;
9108;SDS011;4590;51.462;6.692;2023-02-02T10:47:33;13.38;;;4.35;;
9108;SDS011;4590;51.462;6.692;2023-02-02T10:52:35;15.52;;;4.68;;
9108;SDS011;4590;51.462;6.692;2023-02-02T10:58:00;7.93;;;3.67;;
9108;SDS011;4590;51.462;6.692;2023-02-02T11:03:17;11.05;;;3.78;;
9108;SDS011;4590;51.462;6.692;2023-02-02T11:05:45;12.00;;;3.80;;
9108;SDS011;4590;51.462;6.692;2023-02-02T11:16:34;11.18;;;3.55;;
9108;SDS011;4590;51.462;6.692;2023-02-02T11:19:00;8.00;;;3.50;;
9108;SDS011;4590;51.462;6.692;2023-02-02T11:21:46;11.30;;;4.68;;
9108;SDS011;4590;51.462;6.692;2023-02-02T11:24:23;10.68;;;3.10;;
9108;SDS011;4590;51.462;6.692;2023-02-02T11:26:58;9.15;;;3.63;;
9108;SDS011;4590;51.462;6.692;2023-02-02T11:29:30;9.15;;;2.97;;
9108;SDS011;4590;51.462;6.692;2023-02-02T11:37:27;10.85;;;3.15;;
9108;SDS011;4590;51.462;6.692;2023-02-02T11:39:53;8.02;;;3.00;;
9108;SDS011;4590;51.462;6.692;2023-02-02T11:42:19;11.07;;;3.73;;
9108;SDS011;4590;51.462;6.692;2023-02-02T11:44:50;12.90;;;3.95;;
9108;SDS011;4590;51.462;6.692;2023-02-02T11:49:52;15.02;;;8.75;;
9108;SDS011;4590;51.462;6.692;2023-02-02T11:52:23;16.70;;;11.50;;
9108;SDS011;4590;51.462;6.692;2023-02-02T11:54:51;14.00;;;9.68;;
9108;SDS011;4590;51.462;6.692;2023-02-02T11:57:20;12.98;;;9.40;;
9108;SDS011;4590;51.462;6.692;2023-02-02T12:00:32;10.70;;;6.13;;
9108;SDS011;4590;51.462;6.692;2023-02-02T12:02:32;8.30;;;4.60;;
9108;SDS011;4590;51.462;6.692;2023-02-02T12:07:35;9.70;;;3.67;;
9108;SDS011;4590;51.462;6.692;2023-02-02T12:10:15;9.65;;;3.50;;
9108;SDS011;4590;51.462;6.692;2023-02-02T12:12:44;7.80;;;3.22;;
9108;SDS011;4590;51.462;6.692;2023-02-02T12:18:01;9.82;;;3.30;;
9108;SDS011;4590;51.462;6.692;2023-02-02T12:29:06;12.32;;;3.28;;
9108;SDS011;4590;51.462;6.692;2023-02-02T12:34:24;10.20;;;3.38;;
9108;SDS011;4590;51.462;6.692;2023-02-02T12:40:00;10.30;;;3.15;;
9108;SDS011;4590;51.462;6.692;2023-02-02T12:42:52;8.98;;;4.22;;
9108;SDS011;4590;51.462;6.692;2023-02-02T12:56:51;9.75;;;2.97;;
9108;SDS011;4590;51.462;6.692;2023-02-02T12:59:51;5.97;;;2.95;;
9108;SDS011;4590;51.462;6.692;2023-02-02T13:05:28;7.63;;;3.22;;
9108;SDS011;4590;51.462;6.692;2023-02-02T13:08:05;8.20;;;3.08;;
9108;SDS011;4590;51.462;6.692;2023-02-02T13:10:38;9.15;;;2.78;;
9108;SDS011;4590;51.462;6.692;2023-02-02T13:13:21;8.35;;;2.65;;
9108;SDS011;4590;51.462;6.692;2023-02-02T13:15:51;9.32;;;3.10;;
9108;SDS011;4590;51.462;6.692;2023-02-02T13:19:23;12.68;;;2.58;;
9108;SDS011;4590;51.462;6.692;2023-02-02T13:21:34;6.95;;;3.08;;
9108;SDS011;4590;51.462;6.692;2023-02-02T13:24:02;8.68;;;2.50;;
9108;SDS011;4590;51.462;6.692;2023-02-02T13:26:35;11.27;;;3.10;;
9108;SDS011;4590;51.462;6.692;2023-02-02T13:31:55;7.38;;;2.65;;
9108;SDS011;4590;51.462;6.692;2023-02-02T13:34:40;9.18;;;2.28;;
9108;SDS011;4590;51.462;6.692;2023-02-02T13:37:12;8.98;;;2.53;;
9108;SDS011;4590;51.462;6.692;2023-02-02T13:39:46;10.15;;;2.80;;
9108;SDS011;4590;51.462;6.692;2023-02-02T13:42:18;10.50;;;2.67;;
9108;SDS011;4590;51.462;6.692;2023-02-02T13:44:57;6.65;;;2.17;;
9108;SDS011;4590;51.462;6.692;2023-02-02T13:47:34;7.47;;;2.60;;
9108;SDS011;4590;51.462;6.692;2023-02-02T13:50:06;7.45;;;2.40;;
9108;SDS011;4590;51.462;6.692;2023-02-02T13:55:59;5.95;;;2.30;;
9108;SDS011;4590;51.462;6.692;2023-02-02T13:58:43;6.32;;;2.63;;
9108;SDS011;4590;51.462;6.692;2023-02-02T14:01:13;8.30;;;2.63;;
9108;SDS011;4590;51.462;6.692;2023-02-02T14:03:40;5.03;;;2.20;;
9108;SDS011;4590;51.462;6.692;2023-02-02T14:08:32;8.53;;;2.90;;
9108;SDS011;4590;51.462;6.692;2023-02-02T14:10:58;11.52;;;2.35;;
9108;SDS011;4590;51.462;6.692;2023-02-02T14:13:35;14.90;;;4.55;;
9108;SDS011;4590;51.462;6.692;2023-02-02T14:18:57;12.30;;;3.70;;
9108;SDS011;4590;51.462;6.692;2023-02-02T14:23:55;27.10;;;4.68;;
9108;SDS011;4590;51.462;6.692;2023-02-02T14:31:53;8.93;;;4.28;;
9108;SDS011;4590;51.462;6.692;2023-02-02T14:34:36;10.25;;;3.78;;
9108;SDS011;4590;51.462;6.692;2023-02-02T14:37:13;8.40;;;3.22;;
9108;SDS011;4590;51.462;6.692;2023-02-02T14:39:52;8.48;;;3.78;;
9108;SDS011;4590;51.462;6.692;2023-02-02T14:45:28;13.48;;;3.42;;
9108;SDS011;4590;51.462;6.692;2023-02-02T14:47:56;6.75;;;2.67;;
9108;SDS011;4590;51.462;6.692;2023-02-02T14:55:49;7.72;;;2.72;;
9108;SDS011;4590;51.462;6.692;2023-02-02T14:58:23;8.05;;;2.78;;
9108;SDS011;4590;51.462;6.692;2023-02-02T15:00:53;6.20;;;2.45;;
9108;SDS011;4590;51.462;6.692;2023-02-02T15:03:32;8.63;;;3.35;;
9108;SDS011;4590;51.462;6.692;2023-02-02T15:06:04;9.93;;;5.45;;
9108;SDS011;4590;51.462;6.692;2023-02-02T15:08:37;8.70;;;3.75;;
9108;SDS011;4590;51.462;6.692;2023-02-02T15:11:06;12.97;;;4.70;;
9108;SDS011;4590;51.462;6.692;2023-02-02T15:14:02;8.77;;;3.80;;
9108;SDS011;4590;51.462;6.692;2023-02-02T15:16:34;7.00;;;3.00;;
9108;SDS011;4590;51.462;6.692;2023-02-02T15:19:14;6.28;;;2.70;;
9108;SDS011;4590;51.462;6.692;2023-02-02T15:21:47;5.15;;;2.38;;
9108;SDS011;4590;51.462;6.692;2023-02-02T15:24:16;6.97;;;2.38;;
9108;SDS011;4590;51.462;6.692;2023-02-02T15:26:45;6.60;;;2.70;;
9108;SDS011;4590;51.462;6.692;2023-02-02T15:29:13;5.72;;;2.72;;
9108;SDS011;4590;51.462;6.692;2023-02-02T15:31:46;10.27;;;2.95;;
9108;SDS011;4590;51.462;6.692;2023-02-02T15:36:46;9.43;;;2.80;;
9108;SDS011;4590;51.462;6.692;2023-02-02T15:39:49;5.10;;;2.38;;
9108;SDS011;4590;51.462;6.692;2023-02-02T15:42:14;6.93;;;3.17;;
9108;SDS011;4590;51.462;6.692;2023-02-02T15:45:00;10.10;;;2.92;;
9108;SDS011;4590;51.462;6.692;2023-02-02T15:47:33;10.67;;;3.00;;
9108;SDS011;4590;51.462;6.692;2023-02-02T15:50:01;5.78;;;2.55;;
9108;SDS011;4590;51.462;6.692;2023-02-02T15:52:43;7.75;;;2.95;;
9108;SDS011;4590;51.462;6.692;2023-02-02T15:55:54;7.15;;;2.80;;
9108;SDS011;4590;51.462;6.692;2023-02-02T15:58:00;7.00;;;2.63;;
9108;SDS011;4590;51.462;6.692;2023-02-02T16:07:56;10.10;;;5.20;;
9108;SDS011;4590;51.462;6.692;2023-02-02T16:10:23;8.88;;;4.63;;
9108;SDS011;4590;51.462;6.692;2023-02-02T16:12:48;10.87;;;6.07;;
9108;SDS011;4590;51.462;6.692;2023-02-02T16:15:21;8.73;;;5.17;;
9108;SDS011;4590;51.462;6.692;2023-02-02T16:18:02;12.02;;;6.80;;
9108;SDS011;4590;51.462;6.692;2023-02-02T16:20:31;12.18;;;6.43;;
9108;SDS011;4590;51.462;6.692;2023-02-02T16:23:01;11.02;;;7.00;;
9108;SDS011;4590;51.462;6.692;2023-02-02T16:25:33;12.35;;;6.78;;
9108;SDS011;4590;51.462;6.692;2023-02-02T16:30:36;14.23;;;6.95;;
9108;SDS011;4590;51.462;6.692;2023-02-02T16:36:18;12.70;;;7.00;;
9108;SDS011;4590;51.462;6.692;2023-02-02T16:38:45;12.48;;;6.95;;
9108;SDS011;4590;51.462;6.692;2023-02-02T16:41:23;9.63;;;6.80;;
9108;SDS011;4590;51.462;6.692;2023-02-02T16:43:51;10.48;;;6.15;;
9108;SDS011;4590;51.462;6.692;2023-02-02T16:46:29;13.00;;;6.93;;
9108;SDS011;4590;51.462;6.692;2023-02-02T16:49:06;10.77;;;6.13;;
9108;SDS011;4590;51.462;6.692;2023-02-02T16:51:46;13.45;;;8.13;;
9108;SDS011;4590;51.462;6.692;2023-02-02T16:54:30;16.60;;;12.52;;
9108;SDS011;4590;51.462;6.692;2023-02-02T16:56:58;22.47;;;15.53;;
9108;SDS011;4590;51.462;6.692;2023-02-02T16:59:26;23.98;;;15.00;;
9108;SDS011;4590;51.462;6.692;2023-02-02T17:01:58;20.17;;;14.20;;
9108;SDS011;4590;51.462;6.692;2023-02-02T17:04:27;14.75;;;10.95;;
9108;SDS011;4590;51.462;6.692;2023-02-02T17:06:56;11.60;;;8.75;;
9108;SDS011;4590;51.462;6.692;2023-02-02T17:09:32;13.55;;;8.20;;
9108;SDS011;4590;51.462;6.692;2023-02-02T17:12:00;10.93;;;7.68;;
9108;SDS011;4590;51.462;6.692;2023-02-02T17:14:57;11.70;;;7.85;;
9108;SDS011;4590;51.462;6.692;2023-02-02T17:17:25;10.52;;;7.50;;
9108;SDS011;4590;51.462;6.692;2023-02-02T17:19:51;11.73;;;8.27;;
9108;SDS011;4590;51.462;6.692;2023-02-02T17:22:18;11.48;;;8.70;;
9108;SDS011;4590;51.462;6.692;2023-02-02T17:24:47;8.55;;;6.95;;
9108;SDS011;4590;51.462;6.692;2023-02-02T17:27:16;10.13;;;7.47;;
9108;SDS011;4590;51.462;6.692;2023-02-02T17:29:49;9.77;;;7.30;;
9108;SDS011;4590;51.462;6.692;2023-02-02T17:32:14;9.00;;;7.37;;
9108;SDS011;4590;51.462;6.692;2023-02-02T17:34:39;7.53;;;6.17;;
9108;SDS011;4590;51.462;6.692;2023-02-02T17:37:05;8.17;;;6.63;;
9108;SDS011;4590;51.462;6.692;2023-02-02T17:39:30;8.52;;;6.90;;